This is the latest recevied weather packets stored in our database for station/object K9VSK-9. If no packets are shown the sender has not sent any weather packets the latest 1 day(s).
| Time | Temp. | Humidity | Pressure | Rain* | Wind** | Luminosity | Snow |
|---|---|---|---|---|---|---|---|
| 1777996745 | 12.22° C | 72% | 1010.3 hPa | 0 mm | 1.79 m/s, 360° | - | - |
| 1777996445 | 12.22° C | 71% | 1010.2 hPa | 0 mm | 1.34 m/s, 360° | - | - |
| 1777996144 | 11.67° C | 71% | 1010.2 hPa | 0 mm | 1.34 m/s, 360° | - | - |
| 1777995844 | 11.67° C | 73% | 1010.2 hPa | 0 mm | 0.45 m/s, 360° | - | - |
| 1777995544 | 11.67° C | 71% | 1010.2 hPa | 0 mm | 0.45 m/s, 360° | - | - |
| 1777995243 | 11.67° C | 71% | 1010.1 hPa | 0 mm | 0.45 m/s, 360° | - | - |
| 1777994943 | 11.67° C | 74% | 1010 hPa | 0 mm | 3.58 m/s, 17° | - | - |
| 1777994643 | 11.67° C | 76% | 1010 hPa | 0 mm | 0 m/s | - | - |
| 1777994343 | 11.11° C | 78% | 1010.3 hPa | 0 mm | 2.24 m/s, 347° | - | - |
| 1777994042 | 11.11° C | 81% | 1010.2 hPa | 0 mm | 1.34 m/s, 317° | - | - |
| 1777993742 | 10° C | 82% | 1010.3 hPa | 0 mm | 0.89 m/s, 294° | - | - |
| 1777993442 | 9.44° C | 81% | 1010.3 hPa | 0 mm | 0.89 m/s, 360° | - | - |
| 1777993141 | 9.44° C | 82% | 1010.3 hPa | 0 mm | 0.89 m/s, 360° | - | - |
| 1777992841 | 8.89° C | 82% | 1010.2 hPa | 0 mm | 0.89 m/s, 360° | - | - |
| 1777992541 | 8.89° C | 83% | 1010.1 hPa | 0 mm | 2.24 m/s, 360° | - | - |
| 1777992241 | 8.33° C | 85% | 1009.9 hPa | 0 mm | 0.89 m/s, 285° | - | - |
| 1777991940 | 8.33° C | 84% | 1009.8 hPa | 0 mm | 0.89 m/s, 279° | - | - |
| 1777991640 | 8.33° C | 85% | 1010.1 hPa | 0 mm | 0.45 m/s, 240° | - | - |
| 1777991340 | 7.78° C | 84% | 1009.9 hPa | 0 mm | 0.45 m/s, 295° | - | - |
| 1777991041 | 7.78° C | 84% | 1009.8 hPa | 0 mm | 1.34 m/s, 290° | - | - |
| 1777990739 | 7.78° C | 84% | 1009.8 hPa | 0 mm | 0.45 m/s, 202° | - | - |
| 1777990439 | 7.78° C | 84% | 1009.9 hPa | 0 mm | 0.89 m/s, 180° | - | - |
| 1777990139 | 7.78° C | 85% | 1010 hPa | 0 mm | 0.89 m/s, 69° | - | - |
| 1777989838 | 7.78° C | 84% | 1010.1 hPa | 0 mm | 1.34 m/s, 75° | - | - |
| 1777989538 | 7.78° C | 84% | 1010 hPa | 0 mm | 0.89 m/s, 21° | - | - |
* Rain latest hour (hover to see other rain measurements)
** Current wind speed in m/s (hover to see current wind gust speed)